Time;durP1;ratioP1;P1;durP2;ratioP2;P2;SDS_P1;SDS_P2;PMS_P1;PMS_P2;Temp;Humidity;BMP_temperature;BMP_pressure;BME280_temperature;BME280_humidity;BME280_pressure;Samples;Min_cycle;Max_cycle;Signal;HPM_P1;HPM_P2
2022/04/05 00:00:41;;;;;;;22.15;13.70;;;;;;;;;;5070681;28;20036;-70
2022/04/05 00:03:07;;;;;;;22.75;13.40;;;;;;;;;;5074955;28;20041;-70
2022/04/05 00:05:33;;;;;;;22.73;13.25;;;;;;;;;;5073116;28;20028;-70
2022/04/05 00:07:59;;;;;;;20.23;13.73;;;;;;;;;;5073755;28;20463;-70
2022/04/05 00:10:26;;;;;;;22.73;14.35;;;;;;;;;;5072805;28;20566;-70
2022/04/05 00:12:52;;;;;;;21.00;13.60;;;;;;;;;;5076854;28;20036;-70
2022/04/05 00:15:18;;;;;;;19.77;12.02;;;;;;;;;;5075992;28;20028;-70
2022/04/05 00:17:44;;;;;;;15.23;9.93;;;;;;;;;;5077759;28;20043;-70
2022/04/05 00:20:10;;;;;;;22.98;14.95;;;;;;;;;;5076915;28;20583;-70
2022/04/05 00:22:36;;;;;;;17.65;11.70;;;;;;;;;;5072662;28;20062;-70
2022/04/05 00:25:03;;;;;;;15.05;10.45;;;;;;;;;;5072923;28;20044;-70
2022/04/05 00:27:29;;;;;;;13.80;8.85;;;;;;;;;;5077795;28;20020;-70
2022/04/05 00:29:55;;;;;;;13.15;8.70;;;;;;;;;;5078259;28;20488;-70
2022/04/05 00:32:21;;;;;;;14.23;9.13;;;;;;;;;;5076583;28;20024;-70
2022/04/05 00:34:47;;;;;;;16.60;8.73;;;;;;;;;;5077725;28;20035;-70
2022/04/05 00:37:13;;;;;;;12.85;9.25;;;;;;;;;;5079556;28;20032;-70
2022/04/05 00:39:39;;;;;;;15.77;9.85;;;;;;;;;;5085225;28;20514;-70
2022/04/05 00:42:05;;;;;;;15.98;9.77;;;;;;;;;;5080221;28;20198;-71
2022/04/05 00:44:31;;;;;;;17.10;10.13;;;;;;;;;;5075642;28;20032;-70
2022/04/05 00:47:01;;;;;;;14.15;8.65;;;;;;;;;;5075789;28;20567;-70
2022/04/05 00:49:30;;;;;;;19.10;10.10;;;;;;;;;;5076545;28;20807;-70
2022/04/05 00:51:56;;;;;;;16.33;9.20;;;;;;;;;;5077249;28;20125;-69
2022/04/05 00:54:23;;;;;;;15.43;8.98;;;;;;;;;;5077161;28;20043;-69
2022/04/05 00:56:50;;;;;;;15.23;9.85;;;;;;;;;;5079374;28;20081;-70
2022/04/05 00:59:17;;;;;;;14.35;8.88;;;;;;;;;;5076071;28;20046;-70
2022/04/05 01:01:45;;;;;;;13.00;8.70;;;;;;;;;;5081412;28;20134;-70
2022/04/05 01:04:12;;;;;;;18.15;10.35;;;;;;;;;;5085023;28;20032;-70
2022/04/05 01:06:44;;;;;;;16.15;9.93;;;;;;;;;;5078695;28;20056;-70
2022/04/05 01:09:10;;;;;;;15.20;10.13;;;;;;;;;;5079312;28;20063;-70
2022/04/05 01:11:36;;;;;;;17.67;11.38;;;;;;;;;;5079382;28;20107;-70
2022/04/05 01:14:02;;;;;;;20.23;12.98;;;;;;;;;;5077818;28;20871;-69
2022/04/05 01:16:28;;;;;;;25.45;14.10;;;;;;;;;;5072892;28;20072;-70
2022/04/05 01:18:54;;;;;;;20.63;12.52;;;;;;;;;;5080545;28;20556;-70
2022/04/05 01:21:20;;;;;;;19.90;11.07;;;;;;;;;;5077103;28;20064;-70
2022/04/05 01:24:06;;;;;;;17.45;11.43;;;;;;;;;;5080596;28;20069;-70
2022/04/05 01:26:39;;;;;;;16.42;9.80;;;;;;;;;;5078080;28;20028;-70
2022/04/05 01:29:05;;;;;;;15.25;9.07;;;;;;;;;;5076691;28;20106;-70
2022/04/05 01:31:35;;;;;;;13.88;9.30;;;;;;;;;;5074551;28;20404;-70
2022/04/05 01:34:01;;;;;;;12.98;8.63;;;;;;;;;;5079336;28;20035;-69
2022/04/05 01:36:27;;;;;;;13.73;8.88;;;;;;;;;;5079540;28;20089;-70
2022/04/05 01:38:53;;;;;;;11.32;7.72;;;;;;;;;;5078264;28;20461;-70
2022/04/05 01:41:19;;;;;;;13.57;9.30;;;;;;;;;;5078019;28;20081;-70
2022/04/05 01:43:45;;;;;;;14.50;8.80;;;;;;;;;;5076891;28;20365;-70
2022/04/05 01:46:11;;;;;;;19.73;11.40;;;;;;;;;;5071924;28;20043;-69
2022/04/05 01:48:39;;;;;;;17.92;12.05;;;;;;;;;;5075674;28;20036;-70
2022/04/05 01:51:05;;;;;;;20.00;9.88;;;;;;;;;;5073375;28;20025;-69
2022/04/05 01:53:31;;;;;;;15.20;11.60;;;;;;;;;;5078923;28;20094;-70
2022/04/05 01:55:57;;;;;;;15.88;9.70;;;;;;;;;;5077867;28;20544;-70
2022/04/05 01:58:24;;;;;;;14.95;11.13;;;;;;;;;;5074908;28;20109;-70
2022/04/05 02:00:51;;;;;;;14.20;10.48;;;;;;;;;;5079672;28;20112;-70
2022/04/05 02:03:17;;;;;;;14.45;9.85;;;;;;;;;;5078542;28;20040;-70
2022/04/05 02:05:46;;;;;;;17.13;9.52;;;;;;;;;;5078412;28;20028;-70
2022/04/05 02:08:12;;;;;;;14.00;9.80;;;;;;;;;;5076033;28;20039;-70
2022/04/05 02:10:38;;;;;;;16.58;9.75;;;;;;;;;;5077689;28;20111;-70
2022/04/05 02:13:04;;;;;;;18.25;9.55;;;;;;;;;;5074624;28;20115;-70
2022/04/05 02:15:31;;;;;;;12.77;8.35;;;;;;;;;;5078447;28;20051;-69
2022/04/05 02:17:57;;;;;;;14.50;9.70;;;;;;;;;;5077715;28;20029;-70
2022/04/05 02:20:23;;;;;;;14.13;8.93;;;;;;;;;;5074976;28;20035;-70
2022/04/05 02:22:49;;;;;;;14.90;9.70;;;;;;;;;;5062163;28;20439;-70
2022/04/05 02:25:17;;;;;;;15.57;8.30;;;;;;;;;;5077945;28;20028;-69
2022/04/05 02:27:43;;;;;;;13.18;8.65;;;;;;;;;;5074639;28;20028;-70
2022/04/05 02:30:10;;;;;;;12.52;8.32;;;;;;;;;;5066320;28;20024;-70
2022/04/05 02:32:36;;;;;;;10.85;7.68;;;;;;;;;;5080281;28;20519;-69
2022/04/05 02:35:03;;;;;;;14.73;8.40;;;;;;;;;;5076428;28;20480;-70
2022/04/05 02:37:29;;;;;;;11.05;6.68;;;;;;;;;;5071804;28;20024;-70
2022/04/05 02:39:55;;;;;;;11.98;7.47;;;;;;;;;;5078392;28;20063;-70
2022/04/05 02:42:21;;;;;;;12.57;7.60;;;;;;;;;;5075398;28;20111;-70
2022/04/05 02:44:47;;;;;;;12.95;8.90;;;;;;;;;;5077899;28;20919;-69
2022/04/05 02:47:15;;;;;;;12.27;8.20;;;;;;;;;;5077655;28;20027;-70
2022/04/05 02:49:41;;;;;;;13.05;7.88;;;;;;;;;;5077052;28;20029;-70
2022/04/05 02:52:07;;;;;;;13.23;8.48;;;;;;;;;;5077562;28;20074;-70
2022/04/05 02:54:33;;;;;;;13.45;8.18;;;;;;;;;;5076659;28;20047;-69
2022/04/05 02:56:59;;;;;;;11.23;7.10;;;;;;;;;;5075121;28;20029;-70
2022/04/05 02:59:26;;;;;;;14.20;7.05;;;;;;;;;;5081847;28;20085;-70
2022/04/05 03:01:52;;;;;;;10.70;6.63;;;;;;;;;;5079058;28;20039;-70
2022/04/05 03:04:18;;;;;;;12.40;7.70;;;;;;;;;;5077737;28;20544;-70
2022/04/05 03:06:45;;;;;;;15.48;9.77;;;;;;;;;;5074182;28;20107;-70
2022/04/05 03:09:12;;;;;;;14.77;9.20;;;;;;;;;;5065079;28;20037;-70
2022/04/05 03:11:38;;;;;;;14.15;8.18;;;;;;;;;;5077325;28;20025;-69
2022/04/05 03:14:04;;;;;;;18.00;11.13;;;;;;;;;;5078087;28;20123;-70
2022/04/05 03:16:30;;;;;;;17.60;10.25;;;;;;;;;;5079996;28;20127;-70
2022/04/05 03:18:56;;;;;;;18.20;8.68;;;;;;;;;;5075155;28;20044;-70
2022/04/05 03:21:22;;;;;;;10.93;6.65;;;;;;;;;;5075097;28;20127;-70
2022/04/05 03:23:48;;;;;;;10.05;6.05;;;;;;;;;;5078071;28;20139;-70
2022/04/05 03:26:14;;;;;;;11.13;5.82;;;;;;;;;;5076527;28;20056;-70
2022/04/05 03:28:40;;;;;;;16.15;6.78;;;;;;;;;;5075803;28;20465;-70
2022/04/05 03:31:06;;;;;;;10.52;6.47;;;;;;;;;;5075154;28;20437;-70
2022/04/05 03:33:32;;;;;;;16.13;9.18;;;;;;;;;;5075494;28;20076;-70
2022/04/05 03:35:58;;;;;;;23.17;13.90;;;;;;;;;;5077694;28;20138;-70
2022/04/05 03:38:24;;;;;;;20.00;12.52;;;;;;;;;;5070784;28;20389;-70
2022/04/05 03:40:50;;;;;;;17.20;11.27;;;;;;;;;;5076102;28;20020;-70
2022/04/05 03:43:16;;;;;;;20.65;13.77;;;;;;;;;;5074626;28;20058;-70
2022/04/05 03:45:43;;;;;;;21.05;13.13;;;;;;;;;;5075026;28;20108;-70
2022/04/05 03:48:09;;;;;;;18.48;12.00;;;;;;;;;;5065516;28;20048;-70
2022/04/05 03:50:35;;;;;;;16.48;11.15;;;;;;;;;;5073919;28;20778;-70
2022/04/05 03:53:01;;;;;;;14.95;9.65;;;;;;;;;;5081350;28;20050;-70
2022/04/05 03:55:27;;;;;;;15.73;9.52;;;;;;;;;;5074435;28;20035;-70
2022/04/05 03:57:53;;;;;;;10.80;7.32;;;;;;;;;;5071964;28;20032;-70
2022/04/05 04:00:19;;;;;;;11.27;7.60;;;;;;;;;;5076313;28;20063;-70
2022/04/05 04:02:45;;;;;;;12.68;7.68;;;;;;;;;;5071523;28;20044;-70
2022/04/05 04:05:16;;;;;;;14.73;7.13;;;;;;;;;;5074357;28;20033;-70
2022/04/05 04:07:43;;;;;;;13.10;7.43;;;;;;;;;;5077391;28;20028;-70
2022/04/05 04:10:09;;;;;;;13.43;7.60;;;;;;;;;;5069420;28;20035;-70
2022/04/05 04:12:35;;;;;;;22.00;13.02;;;;;;;;;;5074394;28;20025;-70
2022/04/05 04:15:02;;;;;;;20.23;12.70;;;;;;;;;;5082325;28;20105;-70
2022/04/05 04:17:28;;;;;;;20.27;12.50;;;;;;;;;;5078661;28;20031;-70
2022/04/05 04:19:54;;;;;;;23.83;13.18;;;;;;;;;;5080391;28;20040;-70
2022/04/05 04:22:20;;;;;;;25.75;13.18;;;;;;;;;;5080686;28;20487;-70
2022/04/05 04:24:46;;;;;;;24.35;15.73;;;;;;;;;;5075524;28;20382;-70
2022/04/05 04:27:12;;;;;;;25.35;16.60;;;;;;;;;;5085867;28;20465;-70
2022/04/05 04:29:38;;;;;;;25.40;11.70;;;;;;;;;;5079188;28;20044;-70
2022/04/05 04:32:04;;;;;;;17.65;9.73;;;;;;;;;;5081204;28;20350;-70
2022/04/05 04:34:31;;;;;;;16.85;8.32;;;;;;;;;;5076689;28;20040;-70
2022/04/05 04:36:57;;;;;;;12.27;7.82;;;;;;;;;;5078751;28;20025;-70
2022/04/05 04:39:23;;;;;;;12.63;7.45;;;;;;;;;;5077790;28;20501;-70
2022/04/05 04:41:50;;;;;;;13.98;7.57;;;;;;;;;;5084903;28;20441;-69
2022/04/05 04:44:16;;;;;;;14.45;7.70;;;;;;;;;;5077952;28;20123;-70
2022/04/05 04:46:43;;;;;;;13.05;8.18;;;;;;;;;;5083188;28;20807;-70
2022/04/05 04:49:09;;;;;;;15.45;8.02;;;;;;;;;;5081580;28;20032;-69
2022/04/05 04:51:35;;;;;;;18.90;9.20;;;;;;;;;;5082246;28;20043;-70
2022/04/05 04:54:01;;;;;;;15.93;8.95;;;;;;;;;;5079622;28;20040;-69
2022/04/05 04:56:27;;;;;;;16.17;8.00;;;;;;;;;;5076666;28;20021;-70
2022/04/05 04:58:54;;;;;;;14.02;8.27;;;;;;;;;;5079127;28;20044;-70
2022/04/05 05:01:20;;;;;;;14.50;9.30;;;;;;;;;;5073974;28;20060;-70
2022/04/05 05:03:46;;;;;;;12.30;8.20;;;;;;;;;;5079530;28;20656;-70
2022/04/05 05:06:12;;;;;;;16.00;9.35;;;;;;;;;;5078734;28;20519;-70
2022/04/05 05:08:38;;;;;;;13.35;8.20;;;;;;;;;;5077152;28;20045;-70
2022/04/05 05:11:04;;;;;;;16.83;9.45;;;;;;;;;;5079953;28;20354;-70
2022/04/05 05:13:31;;;;;;;18.10;10.18;;;;;;;;;;5081283;28;20446;-70
2022/04/05 05:15:57;;;;;;;17.52;10.70;;;;;;;;;;5075329;28;20025;-70
2022/04/05 05:18:23;;;;;;;21.42;13.68;;;;;;;;;;5086101;28;20159;-69
2022/04/05 05:20:49;;;;;;;22.02;12.07;;;;;;;;;;5081657;28;20924;-70
2022/04/05 05:23:16;;;;;;;14.07;9.05;;;;;;;;;;5080210;28;20049;-70
2022/04/05 05:25:42;;;;;;;13.55;7.22;;;;;;;;;;5080587;28;20024;-69
2022/04/05 05:28:08;;;;;;;17.90;8.18;;;;;;;;;;5086649;28;20480;-69
2022/04/05 05:30:34;;;;;;;16.98;8.70;;;;;;;;;;5088033;28;20025;-70
2022/04/05 05:33:00;;;;;;;17.30;9.43;;;;;;;;;;5078449;28;20035;-70
2022/04/05 05:35:26;;;;;;;23.10;9.73;;;;;;;;;;5079174;28;20038;-70
2022/04/05 05:37:52;;;;;;;18.02;8.45;;;;;;;;;;5079703;28;20126;-69
2022/04/05 05:40:19;;;;;;;19.55;9.35;;;;;;;;;;5081712;28;20019;-69
2022/04/05 05:42:58;;;;;;;13.68;7.18;;;;;;;;;;5086209;28;21005;-69
2022/04/05 05:45:24;;;;;;;12.40;7.13;;;;;;;;;;5075606;28;20028;-70
2022/04/05 05:47:50;;;;;;;12.73;6.88;;;;;;;;;;5078605;28;20036;-70
2022/04/05 05:50:17;;;;;;;11.00;5.53;;;;;;;;;;5073550;28;20036;-70
2022/04/05 05:52:44;;;;;;;10.05;6.32;;;;;;;;;;5080500;28;20051;-69
2022/04/05 05:55:11;;;;;;;9.60;6.05;;;;;;;;;;5085977;28;20102;-70
2022/04/05 05:57:37;;;;;;;10.70;6.93;;;;;;;;;;5081641;28;20028;-70
2022/04/05 06:00:06;;;;;;;19.65;7.93;;;;;;;;;;5083750;28;20036;-70
2022/04/05 06:02:32;;;;;;;19.55;8.02;;;;;;;;;;5078708;28;20074;-70
2022/04/05 06:04:58;;;;;;;20.33;8.25;;;;;;;;;;5084672;28;20055;-69
2022/04/05 06:07:24;;;;;;;20.15;8.82;;;;;;;;;;5083836;28;20393;-70
2022/04/05 06:09:50;;;;;;;11.93;6.70;;;;;;;;;;5083151;28;20028;-69
2022/04/05 06:12:16;;;;;;;15.10;7.60;;;;;;;;;;5082053;28;20593;-70
2022/04/05 06:14:42;;;;;;;10.20;7.07;;;;;;;;;;5084569;28;20062;-69
2022/04/05 06:17:08;;;;;;;19.95;8.43;;;;;;;;;;5087064;28;20446;-70
2022/04/05 06:19:34;;;;;;;14.30;9.50;;;;;;;;;;5085839;28;20035;-70
2022/04/05 06:22:00;;;;;;;14.15;7.50;;;;;;;;;;5090395;28;20035;-69
2022/04/05 06:24:26;;;;;;;14.52;7.93;;;;;;;;;;5067659;28;20067;-70
2022/04/05 06:26:52;;;;;;;12.60;7.60;;;;;;;;;;5082698;28;20077;-69
2022/04/05 06:29:18;;;;;;;20.27;7.07;;;;;;;;;;5082342;28;20024;-70
2022/04/05 06:31:44;;;;;;;11.13;5.88;;;;;;;;;;5083042;28;20032;-70
2022/04/05 06:34:10;;;;;;;17.23;8.10;;;;;;;;;;5083860;28;20043;-70
2022/04/05 06:36:36;;;;;;;15.40;9.18;;;;;;;;;;5082066;28;20031;-69
2022/04/05 06:39:02;;;;;;;10.90;6.80;;;;;;;;;;5084228;28;20047;-70
2022/04/05 06:41:28;;;;;;;12.73;5.88;;;;;;;;;;5083906;28;20043;-70
2022/04/05 06:43:54;;;;;;;10.50;6.03;;;;;;;;;;5083764;28;20036;-70
2022/04/05 06:46:22;;;;;;;9.63;5.40;;;;;;;;;;5085033;28;20031;-69
2022/04/05 06:48:48;;;;;;;10.20;5.07;;;;;;;;;;5081550;28;20484;-70
2022/04/05 06:51:14;;;;;;;10.20;4.95;;;;;;;;;;5085368;28;20034;-70
2022/04/05 06:53:40;;;;;;;12.07;5.22;;;;;;;;;;5079685;28;20036;-69
2022/04/05 06:56:08;;;;;;;9.40;5.32;;;;;;;;;;5068385;28;20047;-70
2022/04/05 06:58:34;;;;;;;8.93;5.88;;;;;;;;;;5083184;28;20028;-70
2022/04/05 07:01:00;;;;;;;8.25;5.20;;;;;;;;;;5081802;28;20559;-70
2022/04/05 07:03:26;;;;;;;16.45;6.60;;;;;;;;;;5079475;28;20194;-69
2022/04/05 07:05:52;;;;;;;13.13;5.57;;;;;;;;;;5079028;28;20854;-70
2022/04/05 07:08:18;;;;;;;11.63;6.13;;;;;;;;;;5079656;28;20050;-69
2022/04/05 07:10:44;;;;;;;9.23;5.22;;;;;;;;;;5083901;28;20546;-70
2022/04/05 07:13:10;;;;;;;9.35;4.70;;;;;;;;;;5085026;28;20024;-69
2022/04/05 07:15:36;;;;;;;17.25;6.22;;;;;;;;;;5079510;28;20190;-70
2022/04/05 07:18:02;;;;;;;11.80;6.00;;;;;;;;;;5080672;28;20039;-70
2022/04/05 07:20:28;;;;;;;16.13;6.63;;;;;;;;;;5079490;28;20024;-69
2022/04/05 07:22:56;;;;;;;11.05;5.25;;;;;;;;;;5080259;28;20082;-69
2022/04/05 07:25:22;;;;;;;10.30;5.45;;;;;;;;;;5082731;28;20051;-69
2022/04/05 07:27:48;;;;;;;10.07;5.38;;;;;;;;;;5085619;28;20422;-69
2022/04/05 07:30:14;;;;;;;14.68;5.70;;;;;;;;;;5087973;28;20377;-70
2022/04/05 07:32:42;;;;;;;10.85;5.07;;;;;;;;;;5087952;28;20036;-70
2022/04/05 07:35:08;;;;;;;9.95;4.93;;;;;;;;;;5085202;28;20036;-69
2022/04/05 07:37:35;;;;;;;9.90;5.35;;;;;;;;;;5082933;28;20078;-70
2022/04/05 07:40:03;;;;;;;15.10;4.43;;;;;;;;;;5082039;28;20115;-69
2022/04/05 07:42:29;;;;;;;7.57;3.78;;;;;;;;;;5097883;28;20123;-70
2022/04/05 07:44:55;;;;;;;9.25;3.90;;;;;;;;;;5087905;28;20032;-70
2022/04/05 07:47:22;;;;;;;10.65;4.95;;;;;;;;;;5088754;28;20038;-70
2022/04/05 07:49:48;;;;;;;9.63;3.53;;;;;;;;;;5089444;28;20463;-70
2022/04/05 07:52:14;;;;;;;7.57;3.88;;;;;;;;;;5074123;28;20039;-70
2022/04/05 07:54:41;;;;;;;6.00;3.53;;;;;;;;;;5087198;28;20036;-70
2022/04/05 07:57:09;;;;;;;6.35;3.70;;;;;;;;;;5094529;28;20110;-70
2022/04/05 07:59:36;;;;;;;6.28;3.90;;;;;;;;;;5087031;28;20027;-70
2022/04/05 08:02:02;;;;;;;8.77;4.10;;;;;;;;;;5088085;28;20128;-69
2022/04/05 08:04:28;;;;;;;10.85;5.30;;;;;;;;;;5090231;28;20048;-70
2022/04/05 08:06:54;;;;;;;9.10;3.53;;;;;;;;;;5087630;28;20035;-70
2022/04/05 08:09:20;;;;;;;8.25;3.92;;;;;;;;;;5090889;28;20119;-70
2022/04/05 08:11:46;;;;;;;10.35;3.55;;;;;;;;;;5090557;28;20032;-70
2022/04/05 08:14:12;;;;;;;4.82;2.88;;;;;;;;;;5094060;28;20093;-70
2022/04/05 08:16:38;;;;;;;6.72;3.10;;;;;;;;;;5090939;28;20471;-70
2022/04/05 08:19:05;;;;;;;5.78;3.00;;;;;;;;;;5088481;28;20047;-70
2022/04/05 08:21:31;;;;;;;7.47;3.00;;;;;;;;;;5092609;28;20035;-70
2022/04/05 08:23:57;;;;;;;6.28;3.00;;;;;;;;;;5097300;28;20493;-70
2022/04/05 08:26:23;;;;;;;5.65;2.25;;;;;;;;;;5086621;28;20486;-69
2022/04/05 08:28:49;;;;;;;4.80;2.53;;;;;;;;;;5073715;28;20039;-70
2022/04/05 08:31:18;;;;;;;5.78;2.90;;;;;;;;;;5090631;28;20028;-70
2022/04/05 08:33:44;;;;;;;6.35;2.45;;;;;;;;;;5088301;28;20165;-70
2022/04/05 08:36:10;;;;;;;4.38;1.95;;;;;;;;;;5068041;28;20119;-70
2022/04/05 08:38:36;;;;;;;5.00;2.10;;;;;;;;;;5087580;28;20135;-70
2022/04/05 08:41:03;;;;;;;5.50;2.85;;;;;;;;;;5094506;28;20050;-70
2022/04/05 08:43:29;;;;;;;7.03;3.05;;;;;;;;;;5089553;28;20043;-70
2022/04/05 08:45:59;;;;;;;7.45;2.83;;;;;;;;;;5091009;28;20029;-70
2022/04/05 08:48:27;;;;;;;6.65;2.88;;;;;;;;;;5082708;28;20085;-70
2022/04/05 08:50:54;;;;;;;6.88;2.50;;;;;;;;;;5079677;28;20036;-70
2022/04/05 08:53:20;;;;;;;12.70;3.03;;;;;;;;;;5081318;28;20115;-70
2022/04/05 08:55:46;;;;;;;5.28;2.35;;;;;;;;;;5086136;28;20034;-70
2022/04/05 08:58:16;;;;;;;7.22;3.10;;;;;;;;;;5084923;28;20361;-70
2022/04/05 09:00:42;;;;;;;6.65;2.92;;;;;;;;;;5090449;28;20036;-71
2022/04/05 09:03:08;;;;;;;7.28;2.60;;;;;;;;;;5087131;28;20043;-70
2022/04/05 09:05:35;;;;;;;6.00;2.53;;;;;;;;;;5089476;28;20032;-69
2022/04/05 09:08:14;;;;;;;8.55;3.30;;;;;;;;;;5099077;28;20547;-70
2022/04/05 09:10:41;;;;;;;7.43;3.22;;;;;;;;;;5091850;28;20042;-69
2022/04/05 09:13:09;;;;;;;9.38;3.00;;;;;;;;;;5085254;28;20107;-70
2022/04/05 09:15:36;;;;;;;11.70;3.03;;;;;;;;;;5085982;28;20032;-70
2022/04/05 09:18:02;;;;;;;7.40;3.30;;;;;;;;;;5089467;28;20059;-70
2022/04/05 09:20:28;;;;;;;5.95;2.80;;;;;;;;;;5086963;28;20083;-70
2022/04/05 09:22:55;;;;;;;6.05;2.75;;;;;;;;;;5084005;28;20408;-70
2022/04/05 09:25:23;;;;;;;6.20;2.85;;;;;;;;;;5081560;28;20028;-70
2022/04/05 09:27:57;;;;;;;5.80;2.50;;;;;;;;;;5091147;28;20540;-70
2022/04/05 09:30:27;;;;;;;6.47;2.55;;;;;;;;;;5087086;28;20190;-70
2022/04/05 09:32:53;;;;;;;4.68;2.30;;;;;;;;;;5094263;28;20027;-70
2022/04/05 09:35:21;;;;;;;5.47;2.83;;;;;;;;;;5082883;28;20099;-70
2022/04/05 09:37:47;;;;;;;6.03;2.35;;;;;;;;;;5091298;28;20061;-70
2022/04/05 09:40:24;;;;;;;8.88;2.45;;;;;;;;;;5088061;28;20035;-70
2022/04/05 09:43:07;;;;;;;5.88;2.30;;;;;;;;;;5091497;28;20043;-70
2022/04/05 09:45:46;;;;;;;8.35;2.85;;;;;;;;;;5085525;28;20693;-70
2022/04/05 09:48:13;;;;;;;4.70;2.35;;;;;;;;;;5081322;28;20111;-70
2022/04/05 09:50:59;;;;;;;7.88;2.90;;;;;;;;;;5088057;28;20390;-70
2022/04/05 09:53:26;;;;;;;7.15;2.55;;;;;;;;;;5090660;28;20357;-70
2022/04/05 09:56:06;;;;;;;4.32;2.15;;;;;;;;;;5085805;28;20032;-70
2022/04/05 09:58:32;;;;;;;6.07;2.28;;;;;;;;;;5088780;28;20068;-70
2022/04/05 10:01:04;;;;;;;5.38;2.00;;;;;;;;;;5085522;28;20031;-70
2022/04/05 10:03:30;;;;;;;;;;;;;;;;;;5082438;28;20032;-70
2022/04/05 10:05:56;;;;;;;4.72;2.20;;;;;;;;;;5088975;28;20277;-70
2022/04/05 10:08:22;;;;;;;5.63;2.03;;;;;;;;;;5095395;28;20051;-70
2022/04/05 10:10:48;;;;;;;4.60;2.10;;;;;;;;;;5086685;28;20032;-70
2022/04/05 10:13:14;;;;;;;6.72;2.20;;;;;;;;;;5086265;28;20035;-70
2022/04/05 10:15:41;;;;;;;6.43;2.10;;;;;;;;;;5083472;28;20067;-70
2022/04/05 10:18:08;;;;;;;6.82;2.00;;;;;;;;;;5086455;28;20039;-70
2022/04/05 10:20:35;;;;;;;6.13;1.70;;;;;;;;;;5082826;28;20089;-70
2022/04/05 10:23:02;;;;;;;4.53;2.00;;;;;;;;;;5089498;28;20047;-70
2022/04/05 10:25:29;;;;;;;5.80;2.20;;;;;;;;;;5088096;28;20062;-70
2022/04/05 10:27:55;;;;;;;7.88;2.70;;;;;;;;;;5080890;28;20497;-70
2022/04/05 10:30:24;;;;;;;6.88;2.25;;;;;;;;;;5084830;28;20028;-70
2022/04/05 10:32:56;;;;;;;7.97;2.05;;;;;;;;;;5086306;28;20035;-70
2022/04/05 10:35:24;;;;;;;5.72;1.77;;;;;;;;;;5095874;28;20039;-70
2022/04/05 10:37:53;;;;;;;6.25;2.00;;;;;;;;;;5088205;28;20040;-70
2022/04/05 10:40:20;;;;;;;3.78;1.45;;;;;;;;;;5088676;28;20043;-70
2022/04/05 10:42:48;;;;;;;6.72;1.92;;;;;;;;;;5089111;28;20035;-70
2022/04/05 10:45:18;;;;;;;7.13;2.55;;;;;;;;;;5083191;28;20033;-70
2022/04/05 10:47:57;;;;;;;6.05;1.88;;;;;;;;;;5076708;28;20035;-70
2022/04/05 10:50:23;;;;;;;7.43;2.08;;;;;;;;;;5087188;28;20513;-70
2022/04/05 10:53:08;;;;;;;5.43;1.92;;;;;;;;;;5085101;28;20536;-70
2022/04/05 10:55:54;;;;;;;3.65;1.80;;;;;;;;;;5086269;28;20108;-70
2022/04/05 10:58:20;;;;;;;8.60;1.52;;;;;;;;;;5084787;28;20838;-70
2022/04/05 11:00:48;;;;;;;4.05;1.27;;;;;;;;;;5081863;28;20036;-70
2022/04/05 11:03:14;;;;;;;3.95;1.13;;;;;;;;;;5078922;28;20350;-70
2022/04/05 11:05:42;;;;;;;3.85;1.52;;;;;;;;;;5086536;28;20040;-70
2022/04/05 11:08:15;;;;;;;3.88;1.40;;;;;;;;;;5091656;28;20444;-70
2022/04/05 11:10:41;;;;;;;3.35;1.30;;;;;;;;;;5086730;28;20578;-70
2022/04/05 11:13:11;;;;;;;4.88;1.80;;;;;;;;;;5085179;28;20097;-70
2022/04/05 11:15:46;;;;;;;4.05;1.40;;;;;;;;;;5079186;28;20079;-70
2022/04/05 11:18:13;;;;;;;4.35;1.50;;;;;;;;;;5087791;28;20132;-70
2022/04/05 11:20:41;;;;;;;4.07;1.23;;;;;;;;;;5087492;28;20040;-70
2022/04/05 11:23:07;;;;;;;3.85;1.65;;;;;;;;;;5085211;28;20052;-70
2022/04/05 11:25:35;;;;;;;3.00;1.15;;;;;;;;;;5081467;28;20043;-70
2022/04/05 11:28:16;;;;;;;3.60;1.20;;;;;;;;;;5085163;28;20105;-71
2022/04/05 11:30:47;;;;;;;4.80;1.50;;;;;;;;;;5081368;28;20048;-71
2022/04/05 11:33:17;;;;;;;3.38;1.40;;;;;;;;;;5076255;28;20031;-70
2022/04/05 11:35:44;;;;;;;5.63;1.30;;;;;;;;;;5084015;28;20036;-70
2022/04/05 11:38:20;;;;;;;4.75;1.55;;;;;;;;;;5082450;28;20097;-70
2022/04/05 11:40:46;;;;;;;7.80;1.65;;;;;;;;;;5080977;28;20029;-70
2022/04/05 11:43:33;;;;;;;4.97;1.42;;;;;;;;;;5081157;28;20101;-70
2022/04/05 11:46:00;;;;;;;5.55;1.50;;;;;;;;;;5082188;28;20032;-70
2022/04/05 11:48:27;;;;;;;5.70;1.42;;;;;;;;;;5092229;28;20024;-70
2022/04/05 11:50:54;;;;;;;3.28;1.10;;;;;;;;;;5078284;28;20035;-70
2022/04/05 11:53:21;;;;;;;4.47;1.30;;;;;;;;;;5083603;28;20028;-70
2022/04/05 11:56:02;;;;;;;3.10;1.10;;;;;;;;;;5089032;28;20067;-70
2022/04/05 11:58:30;;;;;;;2.72;1.00;;;;;;;;;;5084503;28;20829;-70
2022/04/05 12:00:57;;;;;;;4.72;1.30;;;;;;;;;;5081655;28;20032;-70
2022/04/05 12:03:23;;;;;;;3.05;0.80;;;;;;;;;;5085509;28;20035;-70
2022/04/05 12:05:49;;;;;;;3.95;1.20;;;;;;;;;;5066424;28;20063;-70
2022/04/05 12:08:16;;;;;;;3.85;1.05;;;;;;;;;;5080478;28;20024;-70
2022/04/05 12:10:43;;;;;;;2.75;0.80;;;;;;;;;;5080642;28;20059;-70
2022/04/05 12:13:09;;;;;;;3.80;0.95;;;;;;;;;;5088983;28;20036;-70
2022/04/05 12:15:36;;;;;;;4.35;1.33;;;;;;;;;;5077263;28;20055;-70
2022/04/05 12:18:15;;;;;;;3.88;1.35;;;;;;;;;;5074661;28;20027;-70
2022/04/05 12:20:41;;;;;;;6.55;1.40;;;;;;;;;;5083904;28;20074;-70
2022/04/05 12:23:20;;;;;;;3.75;1.00;;;;;;;;;;5083413;28;20048;-70
2022/04/05 12:26:05;;;;;;;3.78;1.00;;;;;;;;;;5082267;28;20032;-70
2022/04/05 12:28:32;;;;;;;3.33;1.05;;;;;;;;;;5088920;28;20035;-70
2022/04/05 12:31:15;;;;;;;2.65;1.08;;;;;;;;;;5087115;28;20032;-70
2022/04/05 12:33:42;;;;;;;4.82;1.20;;;;;;;;;;5091837;28;20046;-70
2022/04/05 12:36:08;;;;;;;4.40;1.05;;;;;;;;;;5090200;28;20062;-70
2022/04/05 12:38:36;;;;;;;3.60;1.10;;;;;;;;;;5077048;28;20477;-70
2022/04/05 12:41:03;;;;;;;2.78;1.02;;;;;;;;;;5086881;28;20038;-71
2022/04/05 12:43:29;;;;;;;3.63;1.20;;;;;;;;;;5087531;28;20035;-70
2022/04/05 12:45:56;;;;;;;2.58;0.90;;;;;;;;;;5092271;28;20036;-70
2022/04/05 12:48:22;;;;;;;4.60;0.90;;;;;;;;;;5081166;28;20472;-71
2022/04/05 12:50:52;;;;;;;2.83;0.88;;;;;;;;;;5083280;28;20060;-70
2022/04/05 12:53:25;;;;;;;3.63;0.80;;;;;;;;;;5088972;28;20039;-70
2022/04/05 12:56:14;;;;;;;5.43;1.08;;;;;;;;;;5092136;28;20043;-70
2022/04/05 12:58:41;;;;;;;3.45;0.90;;;;;;;;;;5089938;28;20028;-71
2022/04/05 13:01:23;;;;;;;2.88;1.10;;;;;;;;;;5090475;28;20062;-70
2022/04/05 13:03:49;;;;;;;5.63;1.08;;;;;;;;;;5087648;28;20031;-70
2022/04/05 13:06:25;;;;;;;3.50;0.98;;;;;;;;;;5092660;28;20035;-70
2022/04/05 13:08:53;;;;;;;8.68;1.60;;;;;;;;;;5089557;28;20107;-70
2022/04/05 13:11:30;;;;;;;2.90;1.00;;;;;;;;;;5090259;28;20381;-70
2022/04/05 13:14:07;;;;;;;3.63;0.90;;;;;;;;;;5084178;28;20028;-70
2022/04/05 13:16:33;;;;;;;5.63;1.30;;;;;;;;;;5083594;28;20036;-70
2022/04/05 13:19:07;;;;;;;4.78;0.90;;;;;;;;;;5082997;28;20472;-70
2022/04/05 13:21:40;;;;;;;5.22;0.80;;;;;;;;;;5092117;28;20043;-70
2022/04/05 13:24:09;;;;;;;5.07;0.90;;;;;;;;;;5087472;28;20044;-70
2022/04/05 13:26:38;;;;;;;4.78;1.05;;;;;;;;;;5086545;28;20028;-70
2022/04/05 13:29:07;;;;;;;3.65;1.02;;;;;;;;;;5090440;28;20604;-70
2022/04/05 13:31:34;;;;;;;6.82;0.88;;;;;;;;;;5086737;28;20038;-70
2022/04/05 13:34:00;;;;;;;4.53;1.15;;;;;;;;;;5086479;28;20036;-70
2022/04/05 13:36:26;;;;;;;4.40;1.45;;;;;;;;;;5078970;28;20479;-70
2022/04/05 13:38:52;;;;;;;3.13;1.30;;;;;;;;;;5084739;28;20044;-70
2022/04/05 13:41:18;;;;;;;5.35;1.33;;;;;;;;;;5085380;28;20115;-70
2022/04/05 13:43:44;;;;;;;6.75;1.40;;;;;;;;;;5095469;28;20146;-71
2022/04/05 13:46:10;;;;;;;9.55;1.20;;;;;;;;;;5084621;28;20382;-70
2022/04/05 13:48:36;;;;;;;2.85;1.00;;;;;;;;;;5078150;28;20028;-70
2022/04/05 13:51:03;;;;;;;3.25;1.27;;;;;;;;;;5087177;28;20039;-70
2022/04/05 13:53:29;;;;;;;3.70;1.10;;;;;;;;;;5090955;28;20096;-70
2022/04/05 13:55:56;;;;;;;4.68;1.52;;;;;;;;;;5090722;28;20040;-70
2022/04/05 13:58:22;;;;;;;5.22;1.30;;;;;;;;;;5088656;28;20035;-70
2022/04/05 14:00:49;;;;;;;6.15;1.45;;;;;;;;;;5080952;28;20036;-70
2022/04/05 14:03:17;;;;;;;4.45;1.23;;;;;;;;;;5079597;28;20020;-70
2022/04/05 14:05:43;;;;;;;4.10;1.42;;;;;;;;;;5081890;28;20040;-70
2022/04/05 14:08:09;;;;;;;3.08;1.40;;;;;;;;;;5086000;28;20038;-71
2022/04/05 14:10:36;;;;;;;4.78;1.90;;;;;;;;;;5087762;28;20043;-70
2022/04/05 14:13:02;;;;;;;4.20;1.77;;;;;;;;;;5081186;28;20022;-71
2022/04/05 14:15:28;;;;;;;4.32;1.50;;;;;;;;;;5083547;28;20035;-70
2022/04/05 14:17:54;;;;;;;5.40;1.30;;;;;;;;;;5089507;28;20032;-70
2022/04/05 14:20:20;;;;;;;3.08;1.30;;;;;;;;;;5084384;28;20039;-70
2022/04/05 14:22:46;;;;;;;4.97;1.38;;;;;;;;;;5086018;28;20525;-70
2022/04/05 14:25:14;;;;;;;5.90;1.65;;;;;;;;;;5085328;28;20173;-70
2022/04/05 14:27:40;;;;;;;6.47;2.00;;;;;;;;;;5088196;28;20469;-71
2022/04/05 14:30:06;;;;;;;6.07;1.38;;;;;;;;;;5082396;28;20477;-70
2022/04/05 14:32:32;;;;;;;4.93;1.25;;;;;;;;;;5069148;28;20552;-70
2022/04/05 14:35:01;;;;;;;4.80;1.40;;;;;;;;;;5087263;28;20044;-70
2022/04/05 14:37:27;;;;;;;4.82;1.52;;;;;;;;;;5086250;28;20054;-70